Hauptseite
METAR-TAF:

METAR-TAF

Flughäfen :

Uden, Niederlande

Militärflugplatz Volkel

Breite: 51-39N, Länge: 005-42E, Höhe: 22 m

Beobachtung

Neuester Wetterbericht von vor 40 Minuten, um 11:25 UTC
Wind 7 kt aus Süd/Südwest, variierte zwischen Südost und Südwest
Temperatur 21°C
Luftfeuchtigkeit 49%
Luftdruck 1023 hPa
Sichtweite 10 km oder mehr
Leicht bewölkt in der Höhe von 35000 ft
Leicht bewölkt in der Höhe von 4000 ft

METAR: EHVK 211125Z AUTO 19006KT 140V220 9999 FEW350 21/10 Q1023 BLU 21007KT 9999 FEW040

Zeit: 14:05 (12:05 UTC)

Prognose

Neuester Wetterbericht von vor 3 Stunden und 43 Minuten, um 08:22 UTC
Gültige Prognose vom 21 um 09 UTC bis 21 um 21 UTC
Wind 6 kt aus Süd/Südwest
Sichtweite 10 km oder mehr
Leicht bewölkt in der Höhe von 2500 ft

TAF: EHVK 210822Z 2109/2121 21006KT 9999 FEW025

Wetterbeobachtungen und Prognosen von mehr als 4000 Flughäfen (METAR und TAF Bericht).

Die verfügbaren Stationen werden durch gelbe und rote Markierungen auf der Karte dargestellt.

Führen Sie die Maus auf sie, um den Namen der Station zu sehen.

Darauf klicken, um die Beobachtung von Wetterbeobachtungen und Prognosen zu sehen.

Um die Karte zu ändern : klicken Sie auf den grünen Tasten mit einem schwarzen Kreuz Zum Vergrößern, auf den grünen Button mit einem Gedankenstrich zu verkleinern, oder auf die grünen Pfeile für benachbarte Karten.


METAR-TAF: